sensor_id;sensor_type;location;lat;lon;timestamp;pressure;altitude;pressure_sealevel;temperature;humidity
5283;BME280;15376;48.540;9.268;2023-01-25T00:01:51;99051.69;;;1.55;100.00
5283;BME280;15376;48.540;9.268;2023-01-25T00:04:20;99054.41;;;1.53;100.00
5283;BME280;15376;48.540;9.268;2023-01-25T00:06:46;99047.66;;;1.49;100.00
5283;BME280;15376;48.540;9.268;2023-01-25T00:09:12;99035.16;;;1.54;100.00
5283;BME280;15376;48.540;9.268;2023-01-25T00:11:38;99033.63;;;1.50;100.00
5283;BME280;15376;48.540;9.268;2023-01-25T00:14:04;99034.31;;;1.54;100.00
5283;BME280;15376;48.540;9.268;2023-01-25T00:16:30;99021.56;;;1.48;100.00
5283;BME280;15376;48.540;9.268;2023-01-25T00:18:55;99027.72;;;1.47;100.00
5283;BME280;15376;48.540;9.268;2023-01-25T00:21:22;99044.13;;;1.50;100.00
5283;BME280;15376;48.540;9.268;2023-01-25T00:23:47;99032.88;;;1.48;100.00
5283;BME280;15376;48.540;9.268;2023-01-25T00:26:13;99035.16;;;1.54;100.00
5283;BME280;15376;48.540;9.268;2023-01-25T00:28:39;99046.91;;;1.47;100.00
5283;BME280;15376;48.540;9.268;2023-01-25T00:31:06;99053.38;;;1.56;100.00
5283;BME280;15376;48.540;9.268;2023-01-25T00:36:06;99045.63;;;1.54;100.00
5283;BME280;15376;48.540;9.268;2023-01-25T00:38:46;99034.22;;;1.55;100.00
5283;BME280;15376;48.540;9.268;2023-01-25T00:41:11;99021.41;;;1.51;100.00
5283;BME280;15376;48.540;9.268;2023-01-25T00:43:37;99027.38;;;1.53;100.00
5283;BME280;15376;48.540;9.268;2023-01-25T00:46:02;99011.19;;;1.46;100.00
5283;BME280;15376;48.540;9.268;2023-01-25T00:48:27;99029.06;;;1.54;100.00
5283;BME280;15376;48.540;9.268;2023-01-25T00:50:53;99020.28;;;1.55;100.00
5283;BME280;15376;48.540;9.268;2023-01-25T00:53:18;99020.63;;;1.49;100.00
5283;BME280;15376;48.540;9.268;2023-01-25T00:55:53;99007.63;;;1.47;100.00
5283;BME280;15376;48.540;9.268;2023-01-25T00:58:18;99015.22;;;1.52;100.00
5283;BME280;15376;48.540;9.268;2023-01-25T01:00:44;99009.31;;;1.48;100.00
5283;BME280;15376;48.540;9.268;2023-01-25T01:03:09;99021.13;;;1.55;100.00
5283;BME280;15376;48.540;9.268;2023-01-25T01:05:34;99018.69;;;1.52;100.00
5283;BME280;15376;48.540;9.268;2023-01-25T01:08:01;99016.75;;;1.56;100.00
5283;BME280;15376;48.540;9.268;2023-01-25T01:10:26;99024.00;;;1.51;100.00
5283;BME280;15376;48.540;9.268;2023-01-25T01:12:52;99015.50;;;1.47;100.00
5283;BME280;15376;48.540;9.268;2023-01-25T01:15:17;99007.81;;;1.44;100.00
5283;BME280;15376;48.540;9.268;2023-01-25T01:17:42;99011.75;;;1.51;100.00
5283;BME280;15376;48.540;9.268;2023-01-25T01:20:08;98996.59;;;1.42;100.00
5283;BME280;15376;48.540;9.268;2023-01-25T01:22:33;99018.78;;;1.51;100.00
5283;BME280;15376;48.540;9.268;2023-01-25T01:24:59;99011.94;;;1.48;100.00
5283;BME280;15376;48.540;9.268;2023-01-25T01:27:24;99011.09;;;1.48;100.00
5283;BME280;15376;48.540;9.268;2023-01-25T01:29:49;99014.72;;;1.45;100.00
5283;BME280;15376;48.540;9.268;2023-01-25T01:32:15;98992.28;;;1.41;100.00
5283;BME280;15376;48.540;9.268;2023-01-25T01:34:40;99002.84;;;1.40;100.00
5283;BME280;15376;48.540;9.268;2023-01-25T01:37:05;98998.38;;;1.42;100.00
5283;BME280;15376;48.540;9.268;2023-01-25T01:39:31;99000.31;;;1.38;100.00
5283;BME280;15376;48.540;9.268;2023-01-25T01:41:56;99014.56;;;1.48;100.00
5283;BME280;15376;48.540;9.268;2023-01-25T01:44:45;99019.44;;;1.54;100.00
5283;BME280;15376;48.540;9.268;2023-01-25T01:47:16;99016.25;;;1.49;100.00
5283;BME280;15376;48.540;9.268;2023-01-25T01:49:49;99017.94;;;1.50;100.00
5283;BME280;15376;48.540;9.268;2023-01-25T01:52:16;99022.25;;;1.51;100.00
5283;BME280;15376;48.540;9.268;2023-01-25T01:54:59;99006.88;;;1.45;100.00
5283;BME280;15376;48.540;9.268;2023-01-25T01:57:33;99017.19;;;1.48;100.00
5283;BME280;15376;48.540;9.268;2023-01-25T02:00:26;99021.31;;;1.52;100.00
5283;BME280;15376;48.540;9.268;2023-01-25T02:02:53;99014.56;;;1.48;100.00
5283;BME280;15376;48.540;9.268;2023-01-25T02:05:26;98999.13;;;1.44;100.00
5283;BME280;15376;48.540;9.268;2023-01-25T02:07:56;99006.13;;;1.43;100.00
5283;BME280;15376;48.540;9.268;2023-01-25T02:10:22;99011.94;;;1.48;100.00
5283;BME280;15376;48.540;9.268;2023-01-25T02:12:50;99003.34;;;1.46;100.00
5283;BME280;15376;48.540;9.268;2023-01-25T02:15:16;99000.72;;;1.46;100.00
5283;BME280;15376;48.540;9.268;2023-01-25T02:17:42;99004.75;;;1.52;100.00
5283;BME280;15376;48.540;9.268;2023-01-25T02:20:33;99005.44;;;1.55;100.00
5283;BME280;15376;48.540;9.268;2023-01-25T02:23:22;99002.06;;;1.53;100.00
5283;BME280;15376;48.540;9.268;2023-01-25T02:25:48;99003.91;;;1.51;100.00
5283;BME280;15376;48.540;9.268;2023-01-25T02:28:20;98999.44;;;1.53;100.00
5283;BME280;15376;48.540;9.268;2023-01-25T02:30:46;99001.38;;;1.50;100.00
5283;BME280;15376;48.540;9.268;2023-01-25T02:33:12;99011.75;;;1.51;100.00
5283;BME280;15376;48.540;9.268;2023-01-25T02:35:42;99008.41;;;1.49;100.00
5283;BME280;15376;48.540;9.268;2023-01-25T02:38:11;98999.53;;;1.52;100.00
5283;BME280;15376;48.540;9.268;2023-01-25T02:40:43;98986.88;;;1.44;100.00
5283;BME280;15376;48.540;9.268;2023-01-25T02:43:09;98985.19;;;1.43;100.00
5283;BME280;15376;48.540;9.268;2023-01-25T02:45:34;98988.56;;;1.45;100.00
5283;BME280;15376;48.540;9.268;2023-01-25T02:48:00;98995.47;;;1.46;100.00
5283;BME280;15376;48.540;9.268;2023-01-25T02:50:25;98993.63;;;1.48;100.00
5283;BME280;15376;48.540;9.268;2023-01-25T02:52:50;98976.50;;;1.43;100.00
5283;BME280;15376;48.540;9.268;2023-01-25T02:55:16;98987.91;;;1.42;100.00
5283;BME280;15376;48.540;9.268;2023-01-25T02:57:41;98972.53;;;1.36;100.00
5283;BME280;15376;48.540;9.268;2023-01-25T03:00:07;98992.03;;;1.46;100.00
5283;BME280;15376;48.540;9.268;2023-01-25T03:02:33;98979.94;;;1.43;100.00
5283;BME280;15376;48.540;9.268;2023-01-25T03:05:05;98989.66;;;1.41;100.00
5283;BME280;15376;48.540;9.268;2023-01-25T03:07:31;98985.19;;;1.43;100.00
5283;BME280;15376;48.540;9.268;2023-01-25T03:09:56;98973.78;;;1.44;100.00
5283;BME280;15376;48.540;9.268;2023-01-25T03:12:21;98979.03;;;1.44;100.00
5283;BME280;15376;48.540;9.268;2023-01-25T03:14:47;98974.88;;;1.40;100.00
5283;BME280;15376;48.540;9.268;2023-01-25T03:17:12;98986.53;;;1.50;100.00
5283;BME280;15376;48.540;9.268;2023-01-25T03:19:37;98977.16;;;1.46;100.00
5283;BME280;15376;48.540;9.268;2023-01-25T03:22:03;98972.84;;;1.45;100.00
5283;BME280;15376;48.540;9.268;2023-01-25T03:24:30;98974.72;;;1.43;100.00
5283;BME280;15376;48.540;9.268;2023-01-25T03:26:56;98954.78;;;1.41;100.00
5283;BME280;15376;48.540;9.268;2023-01-25T03:29:39;98963.06;;;1.49;100.00
5283;BME280;15376;48.540;9.268;2023-01-25T03:32:05;98946.00;;;1.42;100.00
5283;BME280;15376;48.540;9.268;2023-01-25T03:34:30;98957.91;;;1.47;100.00
5283;BME280;15376;48.540;9.268;2023-01-25T03:36:55;98949.47;;;1.42;100.00
5283;BME280;15376;48.540;9.268;2023-01-25T03:39:21;98947.34;;;1.49;100.00
5283;BME280;15376;48.540;9.268;2023-01-25T03:41:46;98938.25;;;1.40;100.00
5283;BME280;15376;48.540;9.268;2023-01-25T03:44:11;98935.63;;;1.40;100.00
5283;BME280;15376;48.540;9.268;2023-01-25T03:46:38;98923.47;;;1.39;100.00
5283;BME280;15376;48.540;9.268;2023-01-25T03:49:03;98942.03;;;1.50;100.00
5283;BME280;15376;48.540;9.268;2023-01-25T03:51:28;98930.41;;;1.40;100.00
5283;BME280;15376;48.540;9.268;2023-01-25T03:53:54;98945.66;;;1.48;100.00
5283;BME280;15376;48.540;9.268;2023-01-25T03:56:19;98931.25;;;1.41;100.00
5283;BME280;15376;48.540;9.268;2023-01-25T03:58:45;98933.41;;;1.48;100.00
5283;BME280;15376;48.540;9.268;2023-01-25T04:01:11;98932.66;;;1.46;100.00
5283;BME280;15376;48.540;9.268;2023-01-25T04:03:37;98931.81;;;1.46;100.00
5283;BME280;15376;48.540;9.268;2023-01-25T04:06:03;98941.44;;;1.45;100.00
5283;BME280;15376;48.540;9.268;2023-01-25T04:08:30;98931.81;;;1.46;100.00
5283;BME280;15376;48.540;9.268;2023-01-25T04:10:59;98924.91;;;1.45;100.00
5283;BME280;15376;48.540;9.268;2023-01-25T04:13:25;98926.50;;;1.47;100.00
5283;BME280;15376;48.540;9.268;2023-01-25T04:15:51;98872.59;;;1.15;100.00
5283;BME280;15376;48.540;9.268;2023-01-25T04:18:17;98914.78;;;1.39;100.00
5283;BME280;15376;48.540;9.268;2023-01-25T04:20:43;98931.81;;;1.46;100.00
5283;BME280;15376;48.540;9.268;2023-01-25T04:23:09;98927.59;;;1.43;100.00
5283;BME280;15376;48.540;9.268;2023-01-25T04:25:35;98927.25;;;1.49;100.00
5283;BME280;15376;48.540;9.268;2023-01-25T04:28:01;98925.06;;;1.42;100.00
5283;BME280;15376;48.540;9.268;2023-01-25T04:30:27;98935.28;;;1.46;100.00
5283;BME280;15376;48.540;9.268;2023-01-25T04:32:52;98938.38;;;1.53;100.00
5283;BME280;15376;48.540;9.268;2023-01-25T04:35:18;98940.16;;;1.52;100.00
5283;BME280;15376;48.540;9.268;2023-01-25T04:37:54;98948.19;;;1.49;100.00
5283;BME280;15376;48.540;9.268;2023-01-25T04:40:20;98943.78;;;1.50;100.00
5283;BME280;15376;48.540;9.268;2023-01-25T04:42:45;98914.88;;;1.37;100.00
5283;BME280;15376;48.540;9.268;2023-01-25T04:45:11;98946.50;;;1.48;100.00
5283;BME280;15376;48.540;9.268;2023-01-25T04:47:36;98925.91;;;1.42;100.00
5283;BME280;15376;48.540;9.268;2023-01-25T04:50:01;98932.66;;;1.46;100.00
5283;BME280;15376;48.540;9.268;2023-01-25T04:52:27;98912.84;;;1.42;100.00
5283;BME280;15376;48.540;9.268;2023-01-25T04:54:52;98918.72;;;1.46;100.00
5283;BME280;15376;48.540;9.268;2023-01-25T04:57:18;98917.44;;;1.53;100.00
5283;BME280;15376;48.540;9.268;2023-01-25T04:59:43;98920.63;;;1.58;100.00
5283;BME280;15376;48.540;9.268;2023-01-25T05:02:08;98918.09;;;1.56;100.00
5283;BME280;15376;48.540;9.268;2023-01-25T05:04:33;98914.25;;;1.62;100.00
5283;BME280;15376;48.540;9.268;2023-01-25T05:06:59;98914.25;;;1.62;100.00
5283;BME280;15376;48.540;9.268;2023-01-25T05:09:24;98907.44;;;1.59;100.00
5283;BME280;15376;48.540;9.268;2023-01-25T05:11:49;98909.31;;;1.57;100.00
5283;BME280;15376;48.540;9.268;2023-01-25T05:14:15;98923.59;;;1.66;100.00
5283;BME280;15376;48.540;9.268;2023-01-25T05:16:40;98917.69;;;1.62;100.00
5283;BME280;15376;48.540;9.268;2023-01-25T05:19:08;98909.75;;;1.64;100.00
5283;BME280;15376;48.540;9.268;2023-01-25T05:21:33;98899.03;;;1.54;100.00
5283;BME280;15376;48.540;9.268;2023-01-25T05:24:17;98910.78;;;1.61;100.00
5283;BME280;15376;48.540;9.268;2023-01-25T05:26:42;98896.41;;;1.54;100.00
5283;BME280;15376;48.540;9.268;2023-01-25T05:29:28;98907.22;;;1.62;100.00
5283;BME280;15376;48.540;9.268;2023-01-25T05:31:54;98899.47;;;1.61;100.00
5283;BME280;15376;48.540;9.268;2023-01-25T05:34:19;98901.06;;;1.63;100.00
5283;BME280;15376;48.540;9.268;2023-01-25T05:36:45;98903.69;;;1.63;100.00
5283;BME280;15376;48.540;9.268;2023-01-25T05:39:10;98893.38;;;1.60;100.00
5283;BME280;15376;48.540;9.268;2023-01-25T05:41:35;98898.44;;;1.63;100.00
5283;BME280;15376;48.540;9.268;2023-01-25T05:44:01;98901.38;;;1.59;100.00
5283;BME280;15376;48.540;9.268;2023-01-25T05:46:27;98901.16;;;1.62;100.00
5283;BME280;15376;48.540;9.268;2023-01-25T05:48:52;98889.41;;;1.55;100.00
5283;BME280;15376;48.540;9.268;2023-01-25T05:51:18;98887.81;;;1.52;100.00
5283;BME280;15376;48.540;9.268;2023-01-25T05:53:43;98897.25;;;1.55;100.00
5283;BME280;15376;48.540;9.268;2023-01-25T05:56:09;98892.28;;;1.50;100.00
5283;BME280;15376;48.540;9.268;2023-01-25T05:58:35;98898.94;;;1.56;100.00
5283;BME280;15376;48.540;9.268;2023-01-25T06:01:04;98903.97;;;1.59;100.00
5283;BME280;15376;48.540;9.268;2023-01-25T06:03:30;98895.84;;;1.49;100.00
5283;BME280;15376;48.540;9.268;2023-01-25T06:05:58;98897.59;;;1.49;100.00
5283;BME280;15376;48.540;9.268;2023-01-25T06:08:26;98895.00;;;1.49;100.00
5283;BME280;15376;48.540;9.268;2023-01-25T06:10:51;98890.59;;;1.49;100.00
5283;BME280;15376;48.540;9.268;2023-01-25T06:13:17;98906.78;;;1.56;100.00
5283;BME280;15376;48.540;9.268;2023-01-25T06:15:42;98899.88;;;1.55;100.00
5283;BME280;15376;48.540;9.268;2023-01-25T06:18:15;98887.97;;;1.49;100.00
5283;BME280;15376;48.540;9.268;2023-01-25T06:20:40;98899.19;;;1.51;100.00
5283;BME280;15376;48.540;9.268;2023-01-25T06:23:05;98887.22;;;1.47;100.00
5283;BME280;15376;48.540;9.268;2023-01-25T06:25:31;98882.84;;;1.48;100.00
5283;BME280;15376;48.540;9.268;2023-01-25T06:27:56;98879.47;;;1.46;100.00
5283;BME280;15376;48.540;9.268;2023-01-25T06:30:21;98882.94;;;1.46;100.00
5283;BME280;15376;48.540;9.268;2023-01-25T06:32:47;98878.63;;;1.45;100.00
5283;BME280;15376;48.540;9.268;2023-01-25T06:35:14;98893.78;;;1.54;100.00
5283;BME280;15376;48.540;9.268;2023-01-25T06:37:40;98902.56;;;1.53;100.00
5283;BME280;15376;48.540;9.268;2023-01-25T06:40:05;98889.75;;;1.49;100.00
5283;BME280;15376;48.540;9.268;2023-01-25T06:42:31;98899.19;;;1.51;100.00
5283;BME280;15376;48.540;9.268;2023-01-25T06:44:56;98894.63;;;1.55;100.00
5283;BME280;15376;48.540;9.268;2023-01-25T06:47:21;98877.78;;;1.45;100.00
5283;BME280;15376;48.540;9.268;2023-01-25T06:49:47;98870.78;;;1.45;100.00
5283;BME280;15376;48.540;9.268;2023-01-25T06:52:12;98885.00;;;1.55;100.00
5283;BME280;15376;48.540;9.268;2023-01-25T06:54:37;98881.53;;;1.55;100.00
5283;BME280;15376;48.540;9.268;2023-01-25T06:57:03;98878.25;;;1.51;100.00
5283;BME280;15376;48.540;9.268;2023-01-25T06:59:28;98881.44;;;1.56;100.00
5283;BME280;15376;48.540;9.268;2023-01-25T07:01:53;98880.69;;;1.54;100.00
5283;BME280;15376;48.540;9.268;2023-01-25T07:04:19;98870.69;;;1.47;100.00
5283;BME280;15376;48.540;9.268;2023-01-25T07:06:44;98884.34;;;1.52;100.00
5283;BME280;15376;48.540;9.268;2023-01-25T07:09:13;98831.56;;;1.29;100.00
5283;BME280;15376;48.540;9.268;2023-01-25T07:11:39;98829.53;;;1.34;100.00
5283;BME280;15376;48.540;9.268;2023-01-25T07:14:05;98864.91;;;1.56;100.00
5283;BME280;15376;48.540;9.268;2023-01-25T07:16:30;98858.81;;;1.55;100.00
5283;BME280;15376;48.540;9.268;2023-01-25T07:19:02;98864.59;;;1.60;100.00
5283;BME280;15376;48.540;9.268;2023-01-25T07:21:28;98844.06;;;1.54;100.00
5283;BME280;15376;48.540;9.268;2023-01-25T07:23:59;98851.50;;;1.60;100.00
5283;BME280;15376;48.540;9.268;2023-01-25T07:26:25;98847.00;;;1.62;100.00
5283;BME280;15376;48.540;9.268;2023-01-25T07:28:52;98841.03;;;1.60;100.00
5283;BME280;15376;48.540;9.268;2023-01-25T07:31:18;98850.38;;;1.64;100.00
5283;BME280;15376;48.540;9.268;2023-01-25T07:33:48;98835.16;;;1.57;100.00
5283;BME280;15376;48.540;9.268;2023-01-25T07:36:14;98845.47;;;1.60;100.00
5283;BME280;15376;48.540;9.268;2023-01-25T07:38:40;98859.91;;;1.65;100.00
5283;BME280;15376;48.540;9.268;2023-01-25T07:41:05;98855.53;;;1.66;100.00
5283;BME280;15376;48.540;9.268;2023-01-25T07:43:30;98838.22;;;1.63;100.00
5283;BME280;15376;48.540;9.268;2023-01-25T07:46:04;98849.16;;;1.70;100.00
5283;BME280;15376;48.540;9.268;2023-01-25T07:48:29;98839.16;;;1.62;100.00
5283;BME280;15376;48.540;9.268;2023-01-25T07:51:01;98856.19;;;1.70;100.00
5283;BME280;15376;48.540;9.268;2023-01-25T07:53:40;98855.34;;;1.69;100.00
5283;BME280;15376;48.540;9.268;2023-01-25T07:56:06;98843.19;;;1.68;100.00
5283;BME280;15376;48.540;9.268;2023-01-25T07:58:32;98843.56;;;1.62;100.00
5283;BME280;15376;48.540;9.268;2023-01-25T08:01:04;98846.75;;;1.67;100.00
5283;BME280;15376;48.540;9.268;2023-01-25T08:03:30;98854.78;;;1.64;100.00
5283;BME280;15376;48.540;9.268;2023-01-25T08:05:55;98842.53;;;1.64;100.00
5283;BME280;15376;48.540;9.268;2023-01-25T08:08:21;98856.84;;;1.73;100.00
5283;BME280;15376;48.540;9.268;2023-01-25T08:10:46;98844.97;;;1.67;100.00
5283;BME280;15376;48.540;9.268;2023-01-25T08:13:11;98855.72;;;1.77;100.00
5283;BME280;15376;48.540;9.268;2023-01-25T08:15:37;98849.16;;;1.70;100.00
5283;BME280;15376;48.540;9.268;2023-01-25T08:18:03;98830.38;;;1.63;100.00
5283;BME280;15376;48.540;9.268;2023-01-25T08:20:31;98843.66;;;1.75;100.00
5283;BME280;15376;48.540;9.268;2023-01-25T08:22:56;98854.59;;;1.81;100.00
5283;BME280;15376;48.540;9.268;2023-01-25T08:25:22;98855.25;;;1.85;100.00
5283;BME280;15376;48.540;9.268;2023-01-25T08:27:47;98843.09;;;1.84;100.00
5283;BME280;15376;48.540;9.268;2023-01-25T08:30:13;98857.97;;;1.83;100.00
5283;BME280;15376;48.540;9.268;2023-01-25T08:32:38;98846.75;;;1.81;100.00
5283;BME280;15376;48.540;9.268;2023-01-25T08:35:04;98833.38;;;1.72;100.00
5283;BME280;15376;48.540;9.268;2023-01-25T08:37:30;98842.81;;;1.74;100.00
5283;BME280;15376;48.540;9.268;2023-01-25T08:39:55;98828.22;;;1.70;100.00
5283;BME280;15376;48.540;9.268;2023-01-25T08:42:24;98834.97;;;1.74;100.00
5283;BME280;15376;48.540;9.268;2023-01-25T08:44:50;98847.41;;;1.85;100.00
5283;BME280;15376;48.540;9.268;2023-01-25T08:47:15;98836.53;;;1.77;100.00
5283;BME280;15376;48.540;9.268;2023-01-25T08:49:41;98837.84;;;1.84;100.00
5283;BME280;15376;48.540;9.268;2023-01-25T08:52:06;98815.59;;;1.77;100.00
5283;BME280;15376;48.540;9.268;2023-01-25T08:54:31;98822.78;;;1.87;100.00
5283;BME280;15376;48.540;9.268;2023-01-25T08:57:00;98812.31;;;1.87;100.00
5283;BME280;15376;48.540;9.268;2023-01-25T08:59:26;98814.66;;;1.92;100.00
5283;BME280;15376;48.540;9.268;2023-01-25T09:01:51;98821.47;;;1.94;100.00
5283;BME280;15376;48.540;9.268;2023-01-25T09:04:16;98815.22;;;1.97;100.00
5283;BME280;15376;48.540;9.268;2023-01-25T09:06:42;98821.19;;;1.99;100.00
5283;BME280;15376;48.540;9.268;2023-01-25T09:09:07;98814.84;;;1.89;100.00
5283;BME280;15376;48.540;9.268;2023-01-25T09:11:34;98817.19;;;1.93;100.00
5283;BME280;15376;48.540;9.268;2023-01-25T09:14:01;98815.94;;;1.99;100.00
5283;BME280;15376;48.540;9.268;2023-01-25T09:16:26;98819.09;;;2.04;100.00
5283;BME280;15376;48.540;9.268;2023-01-25T09:19:00;98816.38;;;2.06;100.00
5283;BME280;15376;48.540;9.268;2023-01-25T09:21:26;98821.06;;;2.00;100.00
5283;BME280;15376;48.540;9.268;2023-01-25T09:23:52;98819.09;;;2.04;100.00
5283;BME280;15376;48.540;9.268;2023-01-25T09:26:18;98816.66;;;2.01;100.00
5283;BME280;15376;48.540;9.268;2023-01-25T09:28:48;98821.63;;;2.06;100.00
5283;BME280;15376;48.540;9.268;2023-01-25T09:31:14;98814.13;;;2.14;100.00
5283;BME280;15376;48.540;9.268;2023-01-25T09:33:41;98821.88;;;2.15;100.00
5283;BME280;15376;48.540;9.268;2023-01-25T09:36:07;98811.00;;;2.21;100.00
5283;BME280;15376;48.540;9.268;2023-01-25T09:38:32;98819.72;;;2.22;100.00
5283;BME280;15376;48.540;9.268;2023-01-25T09:41:13;98809.91;;;2.11;100.00
5283;BME280;15376;48.540;9.268;2023-01-25T09:49:13;98817.88;;;2.10;100.00
5283;BME280;15376;48.540;9.268;2023-01-25T09:54:35;98775.94;;;1.68;100.00
5283;BME280;15376;48.540;9.268;2023-01-25T09:57:14;98807.53;;;1.94;100.00
5283;BME280;15376;48.540;9.268;2023-01-25T09:59:42;98809.59;;;1.89;100.00
5283;BME280;15376;48.540;9.268;2023-01-25T10:02:40;98806.44;;;1.84;100.00
5283;BME280;15376;48.540;9.268;2023-01-25T10:05:15;98801.47;;;1.93;100.00
5283;BME280;15376;48.540;9.268;2023-01-25T10:08:00;98806.59;;;1.95;100.00
5283;BME280;15376;48.540;9.268;2023-01-25T10:10:37;98802.53;;;2.04;100.00
5283;BME280;15376;48.540;9.268;2023-01-25T10:13:09;98800.09;;;2.15;100.00
5283;BME280;15376;48.540;9.268;2023-01-25T10:15:39;98791.47;;;2.13;100.00
5283;BME280;15376;48.540;9.268;2023-01-25T10:20:56;98771.00;;;2.05;100.00
5283;BME280;15376;48.540;9.268;2023-01-25T10:26:25;98785.59;;;2.09;100.00
5283;BME280;15376;48.540;9.268;2023-01-25T10:29:14;98792.88;;;2.18;100.00
5283;BME280;15376;48.540;9.268;2023-01-25T10:31:47;98787.97;;;2.26;100.00
5283;BME280;15376;48.540;9.268;2023-01-25T10:34:21;98783.31;;;2.17;100.00
5283;BME280;15376;48.540;9.268;2023-01-25T10:36:53;98776.59;;;2.13;100.00
5283;BME280;15376;48.540;9.268;2023-01-25T10:39:19;98768.63;;;2.15;100.00
5283;BME280;15376;48.540;9.268;2023-01-25T10:41:52;98767.59;;;2.17;100.00
5283;BME280;15376;48.540;9.268;2023-01-25T10:44:20;98765.91;;;2.16;100.00
5283;BME280;15376;48.540;9.268;2023-01-25T10:47:21;98763.44;;;2.27;100.00
5283;BME280;15376;48.540;9.268;2023-01-25T10:49:51;98766.47;;;2.21;100.00
5283;BME280;15376;48.540;9.268;2023-01-25T10:52:19;98761.47;;;2.04;100.00
5283;BME280;15376;48.540;9.268;2023-01-25T10:57:44;98756.47;;;2.14;100.00
5283;BME280;15376;48.540;9.268;2023-01-25T11:00:27;98755.69;;;1.99;100.00
5283;BME280;15376;48.540;9.268;2023-01-25T11:02:54;98745.41;;;1.96;100.00
5283;BME280;15376;48.540;9.268;2023-01-25T11:05:39;98747.63;;;2.02;100.00
5283;BME280;15376;48.540;9.268;2023-01-25T11:10:46;98750.03;;;2.05;100.00
5283;BME280;15376;48.540;9.268;2023-01-25T11:16:09;98739.44;;;1.94;100.00
5283;BME280;15376;48.540;9.268;2023-01-25T11:18:51;98728.53;;;2.00;100.00
5283;BME280;15376;48.540;9.268;2023-01-25T11:21:20;98743.22;;;2.03;100.00
5283;BME280;15376;48.540;9.268;2023-01-25T11:26:28;98731.91;;;2.02;100.00
5283;BME280;15376;48.540;9.268;2023-01-25T11:31:39;98724.97;;;2.01;100.00
5283;BME280;15376;48.540;9.268;2023-01-25T11:34:11;98731.69;;;2.05;100.00
5283;BME280;15376;48.540;9.268;2023-01-25T11:39:51;98727.06;;;1.96;100.00
5283;BME280;15376;48.540;9.268;2023-01-25T11:42:31;98725.41;;;1.95;100.00
5283;BME280;15376;48.540;9.268;2023-01-25T11:45:05;98723.53;;;1.97;100.00
5283;BME280;15376;48.540;9.268;2023-01-25T11:47:48;98716.19;;;2.02;100.00
5283;BME280;15376;48.540;9.268;2023-01-25T11:50:33;98713.03;;;1.97;100.00
5283;BME280;15376;48.540;9.268;2023-01-25T11:58:37;98706.41;;;1.91;100.00
5283;BME280;15376;48.540;9.268;2023-01-25T12:01:33;98692.50;;;1.77;100.00
5283;BME280;15376;48.540;9.268;2023-01-25T12:07:01;98681.47;;;1.86;100.00
5283;BME280;15376;48.540;9.268;2023-01-25T12:12:15;98669.66;;;1.93;100.00
5283;BME280;15376;48.540;9.268;2023-01-25T12:25:57;98637.19;;;1.95;100.00
5283;BME280;15376;48.540;9.268;2023-01-25T12:28:36;98632.97;;;1.93;100.00
5283;BME280;15376;48.540;9.268;2023-01-25T12:31:16;98617.38;;;1.91;100.00
5283;BME280;15376;48.540;9.268;2023-01-25T12:33:45;98616.41;;;1.92;100.00
5283;BME280;15376;48.540;9.268;2023-01-25T12:36:26;98617.66;;;1.87;100.00
5283;BME280;15376;48.540;9.268;2023-01-25T12:39:13;98593.75;;;1.79;100.00
5283;BME280;15376;48.540;9.268;2023-01-25T12:44:41;98600.47;;;1.83;100.00
5283;BME280;15376;48.540;9.268;2023-01-25T12:49:46;98582.69;;;1.88;100.00
5283;BME280;15376;48.540;9.268;2023-01-25T12:52:46;98588.66;;;1.90;100.00
5283;BME280;15376;48.540;9.268;2023-01-25T12:55:15;98577.97;;;1.93;100.00
5283;BME280;15376;48.540;9.268;2023-01-25T13:00:28;98572.53;;;1.96;100.00
5283;BME280;15376;48.540;9.268;2023-01-25T13:06:21;98560.88;;;2.00;100.00
5283;BME280;15376;48.540;9.268;2023-01-25T13:08:57;98562.34;;;2.04;100.00
5283;BME280;15376;48.540;9.268;2023-01-25T13:11:30;98561.41;;;2.05;100.00
5283;BME280;15376;48.540;9.268;2023-01-25T13:14:17;98555.03;;;1.96;100.00
5283;BME280;15376;48.540;9.268;2023-01-25T13:16:49;98544.22;;;2.01;100.00
5283;BME280;15376;48.540;9.268;2023-01-25T13:21:54;98541.41;;;2.04;100.00
5283;BME280;15376;48.540;9.268;2023-01-25T13:24:33;98518.66;;;1.92;100.00
5283;BME280;15376;48.540;9.268;2023-01-25T13:27:01;98527.78;;;1.99;100.00
5283;BME280;15376;48.540;9.268;2023-01-25T13:31:54;98517.31;;;1.99;100.00
5283;BME280;15376;48.540;9.268;2023-01-25T13:37:04;98524.72;;;2.05;100.00
5283;BME280;15376;48.540;9.268;2023-01-25T13:39:42;98511.53;;;2.07;100.00
5283;BME280;15376;48.540;9.268;2023-01-25T13:44:35;98517.09;;;2.02;100.00
5283;BME280;15376;48.540;9.268;2023-01-25T13:47:04;98517.72;;;1.93;100.00
5283;BME280;15376;48.540;9.268;2023-01-25T13:52:15;98516.56;;;1.84;100.00
5283;BME280;15376;48.540;9.268;2023-01-25T13:54:45;98506.69;;;1.75;100.00
5283;BME280;15376;48.540;9.268;2023-01-25T13:57:19;98510.38;;;1.85;100.00
5283;BME280;15376;48.540;9.268;2023-01-25T13:59:45;98507.47;;;1.90;100.00
5283;BME280;15376;48.540;9.268;2023-01-25T14:02:23;98505.75;;;1.76;100.00
5283;BME280;15376;48.540;9.268;2023-01-25T14:04:50;98507.03;;;1.83;100.00
5283;BME280;15376;48.540;9.268;2023-01-25T14:07:19;98508.06;;;1.81;100.00
5283;BME280;15376;48.540;9.268;2023-01-25T14:09:45;98478.09;;;1.72;100.00
5283;BME280;15376;48.540;9.268;2023-01-25T14:12:27;98493.09;;;1.83;100.00
5283;BME280;15376;48.540;9.268;2023-01-25T14:14:55;98498.84;;;1.75;100.00
5283;BME280;15376;48.540;9.268;2023-01-25T14:17:22;98495.69;;;1.70;100.00
5283;BME280;15376;48.540;9.268;2023-01-25T14:19:49;98495.50;;;1.73;100.00
5283;BME280;15376;48.540;9.268;2023-01-25T14:27:32;98482.69;;;1.68;100.00
5283;BME280;15376;48.540;9.268;2023-01-25T14:29:59;98480.09;;;1.68;100.00
5283;BME280;15376;48.540;9.268;2023-01-25T14:32:26;98465.31;;;1.67;100.00
5283;BME280;15376;48.540;9.268;2023-01-25T14:34:52;98481.56;;;1.73;100.00
5283;BME280;15376;48.540;9.268;2023-01-25T14:37:19;98482.28;;;1.75;100.00
5283;BME280;15376;48.540;9.268;2023-01-25T14:39:46;98468.56;;;1.58;100.00
5283;BME280;15376;48.540;9.268;2023-01-25T14:42:13;98496.53;;;1.71;100.00
5283;BME280;15376;48.540;9.268;2023-01-25T14:44:39;98489.41;;;1.73;100.00